GJS4513 KEWR-KCHA
Flight info
| Callsign | GJS4513 |
|---|---|
| Flight time | 1h 59m |
| Altitude | 34000 |
| Route | LANNA J48 CSN FANPO Q40 ALEAN VXV |
| Aircraft | CRJ7/M-SDFGIRWY/S |
Departure
| Time | 2026-05-08 16:09 |
|---|---|
| Airport | Newark Liberty International Airport (KEWR) |
Arrival
| Time | 2026-05-08 18:09 |
|---|---|
| Airport | Chattanooga Metropolitan Airport (Lovell Field) (KCHA) |
| Time | Latitude | Longitude | Altitude | Speed | Heading |
|---|---|---|---|---|---|
| 2026-05-08 15:43 | 40.69713 | -74.17472 | 20 ft | 0 kts | 310° |
| 2026-05-08 15:45 | 40.69713 | -74.17473 | 20 ft | 0 kts | 310° |
| 2026-05-08 15:52 | 40.69714 | -74.17473 | 20 ft | 0 kts | 310° |
| 2026-05-08 15:57 | 40.69714 | -74.17474 | 20 ft | 0 kts | 310° |
| 2026-05-08 15:58 | 40.69713 | -74.17472 | 20 ft | 2 kts | 310° |
| 2026-05-08 15:58 | 40.69702 | -74.17455 | 19 ft | 2 kts | 308° |
| 2026-05-08 15:59 | 40.69691 | -74.17438 | 19 ft | 2 kts | 326° |
| 2026-05-08 15:59 | 40.69676 | -74.17431 | 20 ft | 2 kts | 356° |
| 2026-05-08 15:59 | 40.69661 | -74.17441 | 20 ft | 2 kts | 40° |
| 2026-05-08 15:59 | 40.69654 | -74.17450 | 19 ft | 0 kts | 40° |
| 2026-05-08 16:02 | 40.69654 | -74.17449 | 18 ft | 0 kts | 40° |
| 2026-05-08 16:02 | 40.69667 | -74.17434 | 18 ft | 5 kts | 40° |
| 2026-05-08 16:02 | 40.69695 | -74.17403 | 20 ft | 6 kts | 40° |
| 2026-05-08 16:02 | 40.69727 | -74.17368 | 20 ft | 6 kts | 37° |
| 2026-05-08 16:03 | 40.69767 | -74.17325 | 21 ft | 9 kts | 41° |
| 2026-05-08 16:03 | 40.69813 | -74.17267 | 20 ft | 9 kts | 44° |
| 2026-05-08 16:03 | 40.69834 | -74.17201 | 19 ft | 8 kts | 111° |
| 2026-05-08 16:03 | 40.69791 | -74.17138 | 18 ft | 10 kts | 142° |
| 2026-05-08 16:04 | 40.69730 | -74.17083 | 18 ft | 11 kts | 150° |
| 2026-05-08 16:04 | 40.69661 | -74.17036 | 20 ft | 12 kts | 156° |
| 2026-05-08 16:04 | 40.69586 | -74.17002 | 18 ft | 10 kts | 163° |
| 2026-05-08 16:04 | 40.69527 | -74.16955 | 17 ft | 10 kts | 130° |
| 2026-05-08 16:05 | 40.69505 | -74.16894 | 18 ft | 6 kts | 90° |
| 2026-05-08 16:05 | 40.69539 | -74.16835 | 18 ft | 9 kts | 30° |
| 2026-05-08 16:05 | 40.69594 | -74.16798 | 18 ft | 9 kts | 26° |
| 2026-05-08 16:05 | 40.69657 | -74.16758 | 17 ft | 11 kts | 26° |
| 2026-05-08 16:06 | 40.69730 | -74.16712 | 15 ft | 11 kts | 25° |
| 2026-05-08 16:06 | 40.69794 | -74.16672 | 13 ft | 10 kts | 26° |
| 2026-05-08 16:06 | 40.69860 | -74.16629 | 13 ft | 11 kts | 26° |
| 2026-05-08 16:06 | 40.69902 | -74.16602 | 14 ft | 10 kts | 26° |
| 2026-05-08 16:07 | 40.69984 | -74.16550 | 13 ft | 10 kts | 25° |
| 2026-05-08 16:07 | 40.70024 | -74.16525 | 13 ft | 10 kts | 25° |
| 2026-05-08 16:07 | 40.70066 | -74.16447 | 13 ft | 8 kts | 87° |
| 2026-05-08 16:07 | 40.70063 | -74.16398 | 13 ft | 6 kts | 108° |
| 2026-05-08 16:08 | 40.70033 | -74.16369 | 13 ft | 6 kts | 172° |
| 2026-05-08 16:08 | 40.70013 | -74.16374 | 12 ft | 0 kts | 205° |
| 2026-05-08 16:08 | 40.70001 | -74.16382 | 12 ft | 15 kts | 205° |
| 2026-05-08 16:09 | 40.69666 | -74.16595 | 17 ft | 92 kts | 206° |
| 2026-05-08 16:09 | 40.68906 | -74.17064 | 179 ft | 136 kts | 206° |
| 2026-05-08 16:09 | 40.67988 | -74.17518 | 894 ft | 148 kts | 199° |
| 2026-05-08 16:09 | 40.66882 | -74.17531 | 1421 ft | 181 kts | 173° |
| 2026-05-08 16:10 | 40.65547 | -74.17048 | 2075 ft | 210 kts | 172° |
| 2026-05-08 16:10 | 40.64020 | -74.16897 | 2509 ft | 230 kts | 189° |
| 2026-05-08 16:10 | 40.62456 | -74.17439 | 2687 ft | 235 kts | 204° |
| 2026-05-08 16:10 | 40.60959 | -74.18426 | 3013 ft | 251 kts | 223° |
| 2026-05-08 16:11 | 40.60104 | -74.20340 | 3391 ft | 240 kts | 260° |
| 2026-05-08 16:11 | 40.60192 | -74.22493 | 3956 ft | 237 kts | 284° |
| 2026-05-08 16:11 | 40.60623 | -74.24607 | 4860 ft | 241 kts | 285° |
| 2026-05-08 16:11 | 40.61099 | -74.26743 | 5762 ft | 243 kts | 286° |
| 2026-05-08 16:12 | 40.61596 | -74.28860 | 6647 ft | 246 kts | 285° |
| 2026-05-08 16:12 | 40.61813 | -74.31093 | 7512 ft | 246 kts | 272° |
| 2026-05-08 16:12 | 40.61803 | -74.33349 | 8391 ft | 246 kts | 268° |
| 2026-05-08 16:12 | 40.61686 | -74.35582 | 9281 ft | 246 kts | 265° |
| 2026-05-08 16:13 | 40.61500 | -74.37833 | 10102 ft | 249 kts | 264° |
| 2026-05-08 16:13 | 40.61289 | -74.40115 | 10615 ft | 261 kts | 264° |
| 2026-05-08 16:13 | 40.61050 | -74.42558 | 11042 ft | 274 kts | 264° |
| 2026-05-08 16:13 | 40.60815 | -74.45120 | 11388 ft | 289 kts | 265° |
| 2026-05-08 16:14 | 40.60586 | -74.47804 | 11693 ft | 303 kts | 265° |
| 2026-05-08 16:14 | 40.60354 | -74.50578 | 12364 ft | 306 kts | 265° |
| 2026-05-08 16:14 | 40.60121 | -74.53354 | 13101 ft | 307 kts | 266° |
| 2026-05-08 16:14 | 40.59888 | -74.56158 | 13835 ft | 308 kts | 266° |
| 2026-05-08 16:15 | 40.59653 | -74.58989 | 14414 ft | 310 kts | 266° |
| 2026-05-08 16:15 | 40.59419 | -74.61796 | 14965 ft | 314 kts | 266° |
| 2026-05-08 16:15 | 40.59180 | -74.64652 | 15727 ft | 309 kts | 265° |
| 2026-05-08 16:15 | 40.58947 | -74.67472 | 16402 ft | 310 kts | 265° |
| 2026-05-08 16:16 | 40.58706 | -74.70327 | 16954 ft | 314 kts | 265° |
| 2026-05-08 16:16 | 40.58467 | -74.73159 | 17491 ft | 317 kts | 265° |
| 2026-05-08 16:16 | 40.58221 | -74.76070 | 18029 ft | 320 kts | 265° |
| 2026-05-08 16:16 | 40.57973 | -74.78998 | 18522 ft | 323 kts | 265° |
| 2026-05-08 16:17 | 40.57722 | -74.81952 | 19035 ft | 324 kts | 264° |
| 2026-05-08 16:17 | 40.57474 | -74.84874 | 19534 ft | 325 kts | 264° |
| 2026-05-08 16:17 | 40.57218 | -74.87849 | 20041 ft | 326 kts | 265° |
| 2026-05-08 16:17 | 40.56964 | -74.90825 | 20540 ft | 327 kts | 265° |
| 2026-05-08 16:18 | 40.56709 | -74.93781 | 21013 ft | 329 kts | 264° |
| 2026-05-08 16:18 | 40.56449 | -74.96779 | 21475 ft | 330 kts | 264° |
| 2026-05-08 16:18 | 40.56071 | -74.99776 | 21933 ft | 333 kts | 255° |
| 2026-05-08 16:18 | 40.55114 | -75.02538 | 22386 ft | 337 kts | 246° |
| 2026-05-08 16:19 | 40.53991 | -75.05274 | 22837 ft | 339 kts | 246° |
| 2026-05-08 16:19 | 40.52767 | -75.07928 | 23275 ft | 344 kts | 240° |
| 2026-05-08 16:19 | 40.51275 | -75.10429 | 23658 ft | 348 kts | 236° |
| 2026-05-08 16:19 | 40.49677 | -75.12838 | 24015 ft | 349 kts | 235° |
| 2026-05-08 16:20 | 40.48066 | -75.15236 | 24360 ft | 350 kts | 236° |
| 2026-05-08 16:20 | 40.46504 | -75.17634 | 24685 ft | 350 kts | 237° |
| 2026-05-08 16:20 | 40.44941 | -75.20111 | 25002 ft | 350 kts | 237° |
| 2026-05-08 16:20 | 40.43402 | -75.22549 | 25323 ft | 351 kts | 237° |
| 2026-05-08 16:21 | 40.41833 | -75.25027 | 25647 ft | 351 kts | 237° |
| 2026-05-08 16:21 | 40.40263 | -75.27505 | 25953 ft | 352 kts | 237° |
| 2026-05-08 16:21 | 40.38695 | -75.29978 | 26255 ft | 353 kts | 237° |
| 2026-05-08 16:21 | 40.37113 | -75.32470 | 26569 ft | 353 kts | 237° |
| 2026-05-08 16:22 | 40.35551 | -75.34928 | 26847 ft | 354 kts | 237° |
| 2026-05-08 16:22 | 40.33969 | -75.37415 | 27195 ft | 353 kts | 237° |
| 2026-05-08 16:22 | 40.32397 | -75.39885 | 27579 ft | 350 kts | 237° |
| 2026-05-08 16:22 | 40.30854 | -75.42306 | 27961 ft | 348 kts | 238° |
| 2026-05-08 16:23 | 40.29304 | -75.44733 | 28381 ft | 345 kts | 237° |
| 2026-05-08 16:23 | 40.27758 | -75.47139 | 28784 ft | 343 kts | 238° |
| 2026-05-08 16:23 | 40.26227 | -75.49528 | 29187 ft | 340 kts | 238° |
| 2026-05-08 16:23 | 40.24709 | -75.51899 | 29589 ft | 337 kts | 238° |
| 2026-05-08 16:24 | 40.23202 | -75.54230 | 30011 ft | 333 kts | 238° |
| 2026-05-08 16:24 | 40.21771 | -75.56560 | 30374 ft | 328 kts | 241° |
| 2026-05-08 16:24 | 40.20487 | -75.59026 | 30728 ft | 325 kts | 244° |
| 2026-05-08 16:24 | 40.19300 | -75.61495 | 31080 ft | 323 kts | 244° |
| 2026-05-08 16:25 | 40.18105 | -75.63985 | 31451 ft | 322 kts | 244° |
| 2026-05-08 16:25 | 40.16911 | -75.66459 | 31829 ft | 320 kts | 244° |
| 2026-05-08 16:25 | 40.15714 | -75.68906 | 32203 ft | 318 kts | 243° |
| 2026-05-08 16:25 | 40.14526 | -75.71292 | 32575 ft | 316 kts | 243° |
| 2026-05-08 16:26 | 40.13316 | -75.73691 | 32961 ft | 313 kts | 243° |
| 2026-05-08 16:26 | 40.12119 | -75.76060 | 33332 ft | 310 kts | 243° |
| 2026-05-08 16:26 | 40.10949 | -75.78375 | 33690 ft | 307 kts | 243° |
| 2026-05-08 16:26 | 40.09764 | -75.80720 | 33864 ft | 310 kts | 243° |
| 2026-05-08 16:27 | 40.07341 | -75.85455 | 33973 ft | 320 kts | 243° |
| 2026-05-08 16:27 | 40.04841 | -75.90368 | 33992 ft | 331 kts | 243° |
| 2026-05-08 16:28 | 40.02250 | -75.95498 | 34008 ft | 342 kts | 243° |
| 2026-05-08 16:28 | 39.99586 | -76.00753 | 34001 ft | 353 kts | 242° |
| 2026-05-08 16:29 | 39.96856 | -76.06103 | 33999 ft | 356 kts | 242° |
| 2026-05-08 16:29 | 39.94097 | -76.11447 | 33990 ft | 356 kts | 242° |
| 2026-05-08 16:30 | 39.91338 | -76.16811 | 34004 ft | 357 kts | 242° |
| 2026-05-08 16:30 | 39.88592 | -76.22200 | 33988 ft | 357 kts | 242° |
| 2026-05-08 16:31 | 39.85840 | -76.27568 | 33997 ft | 359 kts | 242° |
| 2026-05-08 16:31 | 39.83064 | -76.32977 | 34007 ft | 355 kts | 242° |
| 2026-05-08 16:32 | 39.80351 | -76.38252 | 34002 ft | 351 kts | 242° |
| 2026-05-08 16:32 | 39.77628 | -76.43539 | 34010 ft | 350 kts | 242° |
| 2026-05-08 16:33 | 39.74928 | -76.48766 | 34014 ft | 349 kts | 242° |
| 2026-05-08 16:33 | 39.72218 | -76.54014 | 34008 ft | 351 kts | 242° |
| 2026-05-08 16:34 | 39.69496 | -76.59270 | 34012 ft | 352 kts | 242° |
| 2026-05-08 16:34 | 39.66750 | -76.64569 | 34014 ft | 353 kts | 242° |
| 2026-05-08 16:35 | 39.64019 | -76.69828 | 34017 ft | 349 kts | 242° |
| 2026-05-08 16:35 | 39.61306 | -76.75042 | 34015 ft | 349 kts | 242° |
| 2026-05-08 16:36 | 39.58598 | -76.80238 | 34017 ft | 349 kts | 242° |
| 2026-05-08 16:36 | 39.55866 | -76.85467 | 34012 ft | 349 kts | 242° |
| 2026-05-08 16:37 | 39.53163 | -76.90604 | 34013 ft | 344 kts | 242° |
| 2026-05-08 16:37 | 39.50407 | -76.95728 | 34004 ft | 351 kts | 237° |
| 2026-05-08 16:38 | 39.46970 | -77.00278 | 34022 ft | 356 kts | 232° |
| 2026-05-08 16:38 | 39.43183 | -77.04496 | 34017 ft | 360 kts | 228° |
| 2026-05-08 16:39 | 39.39244 | -77.08504 | 34029 ft | 359 kts | 228° |
| 2026-05-08 16:39 | 39.35364 | -77.12505 | 34040 ft | 357 kts | 229° |
| 2026-05-08 16:40 | 39.31526 | -77.16522 | 34039 ft | 355 kts | 229° |
| 2026-05-08 16:40 | 39.27691 | -77.20535 | 34035 ft | 356 kts | 229° |
| 2026-05-08 16:41 | 39.23824 | -77.24579 | 34041 ft | 355 kts | 229° |
| 2026-05-08 16:42 | 39.18082 | -77.30571 | 34039 ft | 354 kts | 229° |
| 2026-05-08 16:42 | 39.14251 | -77.34564 | 34038 ft | 355 kts | 229° |
| 2026-05-08 16:43 | 39.10413 | -77.38557 | 34030 ft | 355 kts | 229° |
| 2026-05-08 16:43 | 39.06579 | -77.42542 | 34027 ft | 356 kts | 229° |
| 2026-05-08 16:44 | 39.02720 | -77.46546 | 34033 ft | 354 kts | 229° |
| 2026-05-08 16:44 | 38.98908 | -77.50493 | 34035 ft | 353 kts | 229° |
| 2026-05-08 16:45 | 38.95070 | -77.54469 | 34038 ft | 352 kts | 229° |
| 2026-05-08 16:45 | 38.91264 | -77.58397 | 34038 ft | 352 kts | 229° |
| 2026-05-08 16:46 | 38.87440 | -77.62344 | 34043 ft | 351 kts | 229° |
| 2026-05-08 16:46 | 38.83644 | -77.66256 | 34058 ft | 351 kts | 229° |
| 2026-05-08 16:47 | 38.79845 | -77.70164 | 34057 ft | 350 kts | 229° |
| 2026-05-08 16:47 | 38.76042 | -77.74070 | 34046 ft | 351 kts | 229° |
| 2026-05-08 16:48 | 38.72220 | -77.77993 | 34042 ft | 351 kts | 229° |
| 2026-05-08 16:48 | 38.68421 | -77.81909 | 34055 ft | 351 kts | 229° |
| 2026-05-08 16:49 | 38.64690 | -77.85888 | 34057 ft | 346 kts | 233° |
| 2026-05-08 16:49 | 38.61558 | -77.90448 | 34055 ft | 339 kts | 239° |
| 2026-05-08 16:50 | 38.59233 | -77.94490 | 34048 ft | 334 kts | 240° |
| 2026-05-08 16:50 | 38.56521 | -77.99245 | 34046 ft | 332 kts | 240° |
| 2026-05-08 16:51 | 38.53732 | -78.03976 | 34049 ft | 333 kts | 239° |
| 2026-05-08 16:51 | 38.50922 | -78.08700 | 34052 ft | 337 kts | 239° |
| 2026-05-08 16:52 | 38.48068 | -78.13489 | 34053 ft | 339 kts | 239° |
| 2026-05-08 16:52 | 38.45231 | -78.18238 | 34054 ft | 336 kts | 239° |
| 2026-05-08 16:53 | 38.41085 | -78.25415 | 34051 ft | 333 kts | 242° |
| 2026-05-08 16:53 | 38.38693 | -78.30414 | 34041 ft | 331 kts | 244° |
| 2026-05-08 16:54 | 38.36319 | -78.35452 | 34071 ft | 331 kts | 243° |
| 2026-05-08 16:54 | 38.33902 | -78.40426 | 34056 ft | 331 kts | 243° |
| 2026-05-08 16:55 | 38.31472 | -78.45402 | 34059 ft | 330 kts | 243° |
| 2026-05-08 16:55 | 38.29041 | -78.50362 | 34056 ft | 330 kts | 243° |
| 2026-05-08 16:56 | 38.26626 | -78.55292 | 34064 ft | 329 kts | 243° |
| 2026-05-08 16:56 | 38.24198 | -78.60230 | 34067 ft | 330 kts | 243° |
| 2026-05-08 16:57 | 38.21758 | -78.65198 | 34045 ft | 330 kts | 243° |
| 2026-05-08 16:57 | 38.19324 | -78.70145 | 34065 ft | 330 kts | 243° |
| 2026-05-08 16:58 | 38.16895 | -78.75067 | 34072 ft | 329 kts | 243° |
| 2026-05-08 16:58 | 38.14466 | -78.79982 | 34085 ft | 329 kts | 243° |
| 2026-05-08 16:59 | 38.12020 | -78.84927 | 34084 ft | 329 kts | 243° |
| 2026-05-08 16:59 | 38.09581 | -78.89847 | 34073 ft | 329 kts | 242° |
| 2026-05-08 17:00 | 38.07147 | -78.94753 | 34083 ft | 329 kts | 242° |
| 2026-05-08 17:00 | 38.04720 | -78.99629 | 34063 ft | 328 kts | 242° |
| 2026-05-08 17:01 | 38.02240 | -79.04532 | 34073 ft | 328 kts | 242° |
| 2026-05-08 17:01 | 37.99799 | -79.09395 | 34074 ft | 327 kts | 242° |
| 2026-05-08 17:02 | 37.97364 | -79.14288 | 34091 ft | 327 kts | 243° |
| 2026-05-08 17:02 | 37.94934 | -79.19153 | 34097 ft | 327 kts | 242° |
| 2026-05-08 17:03 | 37.92496 | -79.24013 | 34114 ft | 327 kts | 242° |
| 2026-05-08 17:03 | 37.90060 | -79.28863 | 34116 ft | 327 kts | 243° |
| 2026-05-08 17:04 | 37.87621 | -79.33710 | 34126 ft | 327 kts | 243° |
| 2026-05-08 17:04 | 37.85183 | -79.38554 | 34123 ft | 327 kts | 243° |
| 2026-05-08 17:05 | 37.82719 | -79.43423 | 34123 ft | 327 kts | 242° |
| 2026-05-08 17:05 | 37.80260 | -79.48268 | 34123 ft | 328 kts | 243° |
| 2026-05-08 17:06 | 37.77805 | -79.53103 | 34127 ft | 328 kts | 243° |
| 2026-05-08 17:06 | 37.75331 | -79.57978 | 34112 ft | 328 kts | 243° |
| 2026-05-08 17:07 | 37.72869 | -79.62818 | 34101 ft | 329 kts | 243° |
| 2026-05-08 17:07 | 37.70391 | -79.67679 | 34084 ft | 329 kts | 243° |
| 2026-05-08 17:08 | 37.67904 | -79.72546 | 34077 ft | 329 kts | 243° |
| 2026-05-08 17:08 | 37.65427 | -79.77394 | 34064 ft | 329 kts | 243° |
| 2026-05-08 17:09 | 37.62949 | -79.82242 | 34077 ft | 332 kts | 243° |
| 2026-05-08 17:09 | 37.60431 | -79.87158 | 34100 ft | 337 kts | 243° |
| 2026-05-08 17:10 | 37.57881 | -79.92124 | 34093 ft | 335 kts | 243° |
| 2026-05-08 17:10 | 37.55358 | -79.97014 | 34092 ft | 331 kts | 243° |
| 2026-05-08 17:11 | 37.52851 | -80.01884 | 34100 ft | 329 kts | 243° |
| 2026-05-08 17:11 | 37.50355 | -80.06731 | 34105 ft | 332 kts | 243° |
| 2026-05-08 17:12 | 37.47825 | -80.11637 | 34093 ft | 335 kts | 243° |
| 2026-05-08 17:12 | 37.45283 | -80.16548 | 34091 ft | 337 kts | 243° |
| 2026-05-08 17:13 | 37.42721 | -80.21498 | 34092 ft | 339 kts | 243° |
| 2026-05-08 17:13 | 37.40142 | -80.26467 | 34078 ft | 339 kts | 243° |
| 2026-05-08 17:14 | 37.37559 | -80.31422 | 34085 ft | 336 kts | 243° |
| 2026-05-08 17:14 | 37.35019 | -80.36325 | 34109 ft | 335 kts | 243° |
| 2026-05-08 17:15 | 37.32456 | -80.41240 | 34103 ft | 335 kts | 243° |
| 2026-05-08 17:15 | 37.29900 | -80.46114 | 34103 ft | 334 kts | 243° |
| 2026-05-08 17:16 | 37.27349 | -80.50994 | 34108 ft | 335 kts | 244° |
| 2026-05-08 17:16 | 37.24918 | -80.56019 | 33619 ft | 339 kts | 245° |
| 2026-05-08 17:17 | 37.23703 | -80.58571 | 33185 ft | 341 kts | 244° |
| 2026-05-08 17:17 | 37.22471 | -80.61139 | 32763 ft | 343 kts | 244° |
| 2026-05-08 17:17 | 37.21247 | -80.63691 | 32392 ft | 345 kts | 244° |
| 2026-05-08 17:17 | 37.19993 | -80.66296 | 31977 ft | 347 kts | 244° |
| 2026-05-08 17:18 | 37.18749 | -80.68881 | 31560 ft | 349 kts | 244° |
| 2026-05-08 17:18 | 37.17488 | -80.71502 | 31146 ft | 351 kts | 244° |
| 2026-05-08 17:18 | 37.16219 | -80.74142 | 30735 ft | 352 kts | 244° |
| 2026-05-08 17:18 | 37.14960 | -80.76750 | 30332 ft | 353 kts | 243° |
| 2026-05-08 17:19 | 37.13695 | -80.79371 | 29875 ft | 349 kts | 243° |
| 2026-05-08 17:19 | 37.12439 | -80.81970 | 29406 ft | 346 kts | 243° |
| 2026-05-08 17:19 | 37.11209 | -80.84514 | 28957 ft | 344 kts | 243° |
| 2026-05-08 17:19 | 37.09971 | -80.87073 | 28493 ft | 341 kts | 243° |
| 2026-05-08 17:20 | 37.08747 | -80.89610 | 28266 ft | 336 kts | 243° |
| 2026-05-08 17:20 | 37.07551 | -80.92076 | 28163 ft | 335 kts | 243° |
| 2026-05-08 17:20 | 37.05113 | -80.97096 | 28087 ft | 336 kts | 243° |
| 2026-05-08 17:21 | 37.02694 | -81.02071 | 28089 ft | 335 kts | 243° |
| 2026-05-08 17:21 | 37.00246 | -81.07103 | 28108 ft | 338 kts | 243° |
| 2026-05-08 17:22 | 36.97792 | -81.12144 | 28109 ft | 342 kts | 243° |
| 2026-05-08 17:22 | 36.95314 | -81.17210 | 28115 ft | 344 kts | 243° |
| 2026-05-08 17:23 | 36.92801 | -81.22353 | 28110 ft | 346 kts | 243° |
| 2026-05-08 17:23 | 36.90303 | -81.27450 | 28120 ft | 342 kts | 243° |
| 2026-05-08 17:24 | 36.87832 | -81.32466 | 28121 ft | 337 kts | 243° |
| 2026-05-08 17:24 | 36.85382 | -81.37429 | 28116 ft | 333 kts | 243° |
| 2026-05-08 17:25 | 36.82987 | -81.42357 | 28091 ft | 334 kts | 244° |
| 2026-05-08 17:25 | 36.80581 | -81.47373 | 28103 ft | 341 kts | 244° |
| 2026-05-08 17:26 | 36.78076 | -81.52491 | 28104 ft | 348 kts | 243° |
| 2026-05-08 17:26 | 36.75524 | -81.57655 | 28112 ft | 353 kts | 243° |
| 2026-05-08 17:27 | 36.72988 | -81.62909 | 28097 ft | 350 kts | 246° |
| 2026-05-08 17:27 | 36.70972 | -81.68352 | 28080 ft | 344 kts | 250° |
| 2026-05-08 17:28 | 36.69156 | -81.73796 | 28089 ft | 338 kts | 250° |
| 2026-05-08 17:28 | 36.67281 | -81.79194 | 27777 ft | 341 kts | 250° |
| 2026-05-08 17:29 | 36.66331 | -81.81894 | 27533 ft | 345 kts | 250° |
| 2026-05-08 17:29 | 36.65364 | -81.84636 | 27283 ft | 344 kts | 250° |
| 2026-05-08 17:29 | 36.64402 | -81.87348 | 27039 ft | 341 kts | 249° |
| 2026-05-08 17:29 | 36.63458 | -81.90014 | 26799 ft | 338 kts | 250° |
| 2026-05-08 17:30 | 36.62512 | -81.92690 | 26549 ft | 336 kts | 250° |
| 2026-05-08 17:30 | 36.61566 | -81.95353 | 26313 ft | 335 kts | 249° |
| 2026-05-08 17:30 | 36.60620 | -81.98013 | 26057 ft | 334 kts | 250° |
| 2026-05-08 17:30 | 36.59691 | -82.00630 | 25825 ft | 333 kts | 250° |
| 2026-05-08 17:31 | 36.58754 | -82.03268 | 25588 ft | 332 kts | 249° |
| 2026-05-08 17:31 | 36.57821 | -82.05894 | 25347 ft | 331 kts | 249° |
| 2026-05-08 17:31 | 36.56889 | -82.08514 | 25109 ft | 329 kts | 249° |
| 2026-05-08 17:31 | 36.55957 | -82.11128 | 24878 ft | 330 kts | 249° |
| 2026-05-08 17:32 | 36.55038 | -82.13705 | 24660 ft | 330 kts | 249° |
| 2026-05-08 17:32 | 36.54101 | -82.16329 | 24432 ft | 330 kts | 249° |
| 2026-05-08 17:32 | 36.53177 | -82.18913 | 24215 ft | 330 kts | 249° |
| 2026-05-08 17:32 | 36.52239 | -82.21540 | 24002 ft | 331 kts | 249° |
| 2026-05-08 17:33 | 36.51303 | -82.24161 | 23781 ft | 331 kts | 249° |
| 2026-05-08 17:33 | 36.50366 | -82.26778 | 23539 ft | 332 kts | 249° |
| 2026-05-08 17:33 | 36.49435 | -82.29379 | 23287 ft | 333 kts | 249° |
| 2026-05-08 17:33 | 36.48483 | -82.32017 | 23024 ft | 332 kts | 249° |
| 2026-05-08 17:34 | 36.47556 | -82.34605 | 22756 ft | 330 kts | 249° |
| 2026-05-08 17:34 | 36.46618 | -82.37213 | 22495 ft | 328 kts | 249° |
| 2026-05-08 17:34 | 36.45686 | -82.39801 | 22234 ft | 328 kts | 249° |
| 2026-05-08 17:34 | 36.45065 | -82.41523 | 22074 ft | 330 kts | 250° |
| 2026-05-08 17:35 | 36.43776 | -82.45006 | 21720 ft | 340 kts | 250° |
| 2026-05-08 17:35 | 36.42786 | -82.47729 | 21472 ft | 349 kts | 250° |
| 2026-05-08 17:35 | 36.41796 | -82.50483 | 21239 ft | 353 kts | 250° |
| 2026-05-08 17:35 | 36.40802 | -82.53243 | 20986 ft | 345 kts | 250° |
| 2026-05-08 17:36 | 36.40155 | -82.55029 | 20823 ft | 341 kts | 249° |
| 2026-05-08 17:36 | 36.39083 | -82.57655 | 20583 ft | 339 kts | 246° |
| 2026-05-08 17:36 | 36.37890 | -82.60176 | 20409 ft | 337 kts | 243° |
| 2026-05-08 17:36 | 36.36628 | -82.62651 | 20232 ft | 340 kts | 243° |
| 2026-05-08 17:37 | 36.35368 | -82.65129 | 20040 ft | 347 kts | 243° |
| 2026-05-08 17:37 | 36.34081 | -82.67688 | 19852 ft | 346 kts | 243° |
| 2026-05-08 17:37 | 36.32828 | -82.70183 | 19669 ft | 342 kts | 243° |
| 2026-05-08 17:37 | 36.31575 | -82.72680 | 19479 ft | 338 kts | 243° |
| 2026-05-08 17:38 | 36.30327 | -82.75162 | 19301 ft | 339 kts | 243° |
| 2026-05-08 17:38 | 36.29074 | -82.77652 | 19104 ft | 341 kts | 243° |
| 2026-05-08 17:38 | 36.27812 | -82.80159 | 18934 ft | 342 kts | 243° |
| 2026-05-08 17:38 | 36.26561 | -82.82641 | 18759 ft | 344 kts | 243° |
| 2026-05-08 17:39 | 36.25283 | -82.85178 | 18574 ft | 346 kts | 243° |
| 2026-05-08 17:39 | 36.24002 | -82.87714 | 18392 ft | 347 kts | 243° |
| 2026-05-08 17:39 | 36.22733 | -82.90222 | 18192 ft | 348 kts | 242° |
| 2026-05-08 17:39 | 36.21445 | -82.92770 | 17977 ft | 348 kts | 242° |
| 2026-05-08 17:40 | 36.20157 | -82.95322 | 17768 ft | 348 kts | 242° |
| 2026-05-08 17:40 | 36.18875 | -82.97852 | 17545 ft | 345 kts | 242° |
| 2026-05-08 17:40 | 36.17607 | -83.00355 | 17340 ft | 348 kts | 242° |
| 2026-05-08 17:40 | 36.16308 | -83.02919 | 17129 ft | 350 kts | 242° |
| 2026-05-08 17:41 | 36.15018 | -83.05460 | 16924 ft | 352 kts | 242° |
| 2026-05-08 17:41 | 36.13715 | -83.08019 | 16709 ft | 347 kts | 242° |
| 2026-05-08 17:41 | 36.12434 | -83.10541 | 16503 ft | 344 kts | 242° |
| 2026-05-08 17:41 | 36.11177 | -83.13011 | 16244 ft | 342 kts | 242° |
| 2026-05-08 17:42 | 36.09907 | -83.15510 | 15930 ft | 341 kts | 242° |
| 2026-05-08 17:42 | 36.08641 | -83.18001 | 15641 ft | 340 kts | 242° |
| 2026-05-08 17:42 | 36.07390 | -83.20448 | 15353 ft | 340 kts | 242° |
| 2026-05-08 17:42 | 36.06126 | -83.22930 | 15061 ft | 340 kts | 242° |
| 2026-05-08 17:43 | 36.04859 | -83.25410 | 14774 ft | 339 kts | 242° |
| 2026-05-08 17:43 | 36.03600 | -83.27873 | 14485 ft | 338 kts | 241° |
| 2026-05-08 17:43 | 36.02361 | -83.30302 | 14202 ft | 335 kts | 241° |
| 2026-05-08 17:43 | 36.01116 | -83.32740 | 13910 ft | 335 kts | 241° |
| 2026-05-08 17:44 | 35.99887 | -83.35141 | 13601 ft | 335 kts | 241° |
| 2026-05-08 17:44 | 35.98642 | -83.37572 | 13269 ft | 335 kts | 241° |
| 2026-05-08 17:44 | 35.97386 | -83.40019 | 12960 ft | 335 kts | 241° |
| 2026-05-08 17:44 | 35.96138 | -83.42454 | 12646 ft | 335 kts | 240° |
| 2026-05-08 17:45 | 35.94890 | -83.44885 | 12336 ft | 333 kts | 240° |
| 2026-05-08 17:45 | 35.93666 | -83.47264 | 12143 ft | 332 kts | 240° |
| 2026-05-08 17:45 | 35.92434 | -83.49666 | 12062 ft | 328 kts | 240° |
| 2026-05-08 17:45 | 35.91205 | -83.52044 | 12022 ft | 328 kts | 240° |
| 2026-05-08 17:46 | 35.89982 | -83.54426 | 12006 ft | 328 kts | 240° |
| 2026-05-08 17:46 | 35.88773 | -83.56769 | 12001 ft | 327 kts | 240° |
| 2026-05-08 17:46 | 35.87550 | -83.59139 | 11995 ft | 327 kts | 240° |
| 2026-05-08 17:46 | 35.86327 | -83.61514 | 11996 ft | 327 kts | 240° |
| 2026-05-08 17:47 | 35.85095 | -83.63898 | 12002 ft | 329 kts | 240° |
| 2026-05-08 17:47 | 35.83871 | -83.66263 | 12000 ft | 331 kts | 240° |
| 2026-05-08 17:47 | 35.82630 | -83.68668 | 11984 ft | 331 kts | 240° |
| 2026-05-08 17:47 | 35.81807 | -83.70261 | 11989 ft | 330 kts | 240° |
| 2026-05-08 17:48 | 35.80169 | -83.73422 | 11979 ft | 329 kts | 240° |
| 2026-05-08 17:48 | 35.78931 | -83.75815 | 11990 ft | 329 kts | 240° |
| 2026-05-08 17:48 | 35.77697 | -83.78190 | 11990 ft | 328 kts | 240° |
| 2026-05-08 17:48 | 35.76484 | -83.80532 | 11902 ft | 324 kts | 240° |
| 2026-05-08 17:49 | 35.75257 | -83.82894 | 11708 ft | 326 kts | 240° |
| 2026-05-08 17:49 | 35.74034 | -83.85245 | 11519 ft | 325 kts | 240° |
| 2026-05-08 17:49 | 35.72829 | -83.87569 | 11320 ft | 324 kts | 240° |
| 2026-05-08 17:49 | 35.71608 | -83.89912 | 11125 ft | 324 kts | 240° |
| 2026-05-08 17:50 | 35.70395 | -83.92245 | 10938 ft | 320 kts | 240° |
| 2026-05-08 17:50 | 35.69227 | -83.94478 | 10748 ft | 306 kts | 240° |
| 2026-05-08 17:50 | 35.68093 | -83.96656 | 10564 ft | 295 kts | 240° |
| 2026-05-08 17:50 | 35.66995 | -83.98765 | 10363 ft | 300 kts | 240° |
| 2026-05-08 17:51 | 35.65848 | -84.00963 | 10193 ft | 307 kts | 240° |
| 2026-05-08 17:51 | 35.64684 | -84.03193 | 10091 ft | 308 kts | 240° |
| 2026-05-08 17:51 | 35.63533 | -84.05384 | 10048 ft | 305 kts | 239° |
| 2026-05-08 17:51 | 35.62373 | -84.07565 | 10023 ft | 301 kts | 239° |
| 2026-05-08 17:52 | 35.61233 | -84.09713 | 10008 ft | 298 kts | 239° |
| 2026-05-08 17:52 | 35.60126 | -84.11814 | 9992 ft | 296 kts | 240° |
| 2026-05-08 17:52 | 35.57898 | -84.16061 | 9998 ft | 294 kts | 240° |
| 2026-05-08 17:53 | 35.56787 | -84.18185 | 9993 ft | 297 kts | 240° |
| 2026-05-08 17:53 | 35.55656 | -84.20346 | 9992 ft | 306 kts | 240° |
| 2026-05-08 17:53 | 35.54489 | -84.22570 | 10001 ft | 312 kts | 240° |
| 2026-05-08 17:53 | 35.53306 | -84.24823 | 10000 ft | 314 kts | 239° |
| 2026-05-08 17:54 | 35.52137 | -84.27049 | 9998 ft | 311 kts | 239° |
| 2026-05-08 17:54 | 35.50963 | -84.29274 | 9988 ft | 307 kts | 239° |
| 2026-05-08 17:54 | 35.49796 | -84.31477 | 9992 ft | 308 kts | 239° |
| 2026-05-08 17:54 | 35.48643 | -84.33662 | 9986 ft | 309 kts | 239° |
| 2026-05-08 17:55 | 35.47477 | -84.35870 | 9989 ft | 308 kts | 239° |
| 2026-05-08 17:55 | 35.46314 | -84.38084 | 9992 ft | 308 kts | 239° |
| 2026-05-08 17:55 | 35.45145 | -84.40294 | 9995 ft | 307 kts | 239° |
| 2026-05-08 17:55 | 35.43984 | -84.42501 | 10003 ft | 307 kts | 240° |
| 2026-05-08 17:56 | 35.42846 | -84.44658 | 10024 ft | 302 kts | 240° |
| 2026-05-08 17:56 | 35.41717 | -84.46789 | 10008 ft | 288 kts | 240° |
| 2026-05-08 17:56 | 35.40644 | -84.48801 | 9888 ft | 277 kts | 240° |
| 2026-05-08 17:56 | 35.39601 | -84.50772 | 9668 ft | 278 kts | 240° |
| 2026-05-08 17:57 | 35.38545 | -84.52752 | 9477 ft | 273 kts | 239° |
| 2026-05-08 17:57 | 35.37516 | -84.54714 | 9233 ft | 272 kts | 240° |
| 2026-05-08 17:57 | 35.36503 | -84.56660 | 9042 ft | 274 kts | 240° |
| 2026-05-08 17:57 | 35.35485 | -84.58652 | 8818 ft | 275 kts | 240° |
| 2026-05-08 17:58 | 35.34487 | -84.60625 | 8679 ft | 275 kts | 240° |
| 2026-05-08 17:58 | 35.33475 | -84.62622 | 8470 ft | 275 kts | 240° |
| 2026-05-08 17:58 | 35.32470 | -84.64629 | 8269 ft | 275 kts | 241° |
| 2026-05-08 17:58 | 35.31489 | -84.66614 | 8074 ft | 275 kts | 240° |
| 2026-05-08 17:59 | 35.30503 | -84.68600 | 7826 ft | 270 kts | 240° |
| 2026-05-08 17:59 | 35.29535 | -84.70551 | 7594 ft | 267 kts | 240° |
| 2026-05-08 17:59 | 35.28583 | -84.72484 | 7379 ft | 268 kts | 240° |
| 2026-05-08 17:59 | 35.27620 | -84.74450 | 7199 ft | 268 kts | 240° |
| 2026-05-08 18:00 | 35.26659 | -84.76426 | 7007 ft | 269 kts | 240° |
| 2026-05-08 18:00 | 35.25067 | -84.80524 | 6603 ft | 268 kts | 252° |
| 2026-05-08 18:00 | 35.24502 | -84.82686 | 6422 ft | 263 kts | 254° |
| 2026-05-08 18:01 | 35.23965 | -84.84842 | 6283 ft | 267 kts | 253° |
| 2026-05-08 18:01 | 35.23452 | -84.87002 | 6081 ft | 267 kts | 254° |
| 2026-05-08 18:01 | 35.22959 | -84.89161 | 5863 ft | 259 kts | 254° |
| 2026-05-08 18:01 | 35.22476 | -84.91270 | 5694 ft | 252 kts | 254° |
| 2026-05-08 18:02 | 35.22019 | -84.93292 | 5437 ft | 247 kts | 254° |
| 2026-05-08 18:02 | 35.21731 | -84.94633 | 5276 ft | 244 kts | 255° |
| 2026-05-08 18:02 | 35.21194 | -84.97284 | 5039 ft | 233 kts | 255° |
| 2026-05-08 18:02 | 35.20813 | -84.99154 | 4849 ft | 224 kts | 254° |
| 2026-05-08 18:03 | 35.20448 | -85.00979 | 4629 ft | 218 kts | 255° |
| 2026-05-08 18:03 | 35.20094 | -85.02766 | 4465 ft | 211 kts | 253° |
| 2026-05-08 18:03 | 35.19755 | -85.04467 | 4304 ft | 205 kts | 254° |
| 2026-05-08 18:03 | 35.19422 | -85.06132 | 4090 ft | 199 kts | 255° |
| 2026-05-08 18:04 | 35.19116 | -85.07761 | 3875 ft | 189 kts | 254° |
| 2026-05-08 18:04 | 35.18827 | -85.09292 | 3626 ft | 185 kts | 256° |
| 2026-05-08 18:04 | 35.18545 | -85.10811 | 3388 ft | 187 kts | 255° |
| 2026-05-08 18:04 | 35.18230 | -85.12332 | 3135 ft | 181 kts | 253° |
| 2026-05-08 18:05 | 35.17746 | -85.13729 | 2821 ft | 175 kts | 236° |
| 2026-05-08 18:05 | 35.16962 | -85.14717 | 2593 ft | 154 kts | 216° |
| 2026-05-08 18:05 | 35.16067 | -85.15339 | 2337 ft | 144 kts | 210° |
| 2026-05-08 18:05 | 35.15209 | -85.15925 | 2151 ft | 138 kts | 203° |
| 2026-05-08 18:06 | 35.14298 | -85.16309 | 2010 ft | 143 kts | 197° |
| 2026-05-08 18:06 | 35.13340 | -85.16664 | 1859 ft | 142 kts | 197° |
| 2026-05-08 18:06 | 35.12425 | -85.17003 | 1692 ft | 134 kts | 198° |
| 2026-05-08 18:06 | 35.11522 | -85.17343 | 1539 ft | 136 kts | 197° |
| 2026-05-08 18:07 | 35.10624 | -85.17667 | 1429 ft | 136 kts | 197° |
| 2026-05-08 18:07 | 35.09715 | -85.18012 | 1351 ft | 137 kts | 197° |
| 2026-05-08 18:07 | 35.08803 | -85.18348 | 1294 ft | 135 kts | 197° |
| 2026-05-08 18:07 | 35.07902 | -85.18686 | 1193 ft | 135 kts | 197° |
| 2026-05-08 18:08 | 35.07015 | -85.19006 | 1069 ft | 135 kts | 197° |
| 2026-05-08 18:08 | 35.06116 | -85.19344 | 956 ft | 135 kts | 197° |
| 2026-05-08 18:08 | 35.05224 | -85.19668 | 838 ft | 134 kts | 197° |
| 2026-05-08 18:08 | 35.04357 | -85.19988 | 726 ft | 126 kts | 197° |
| 2026-05-08 18:09 | 35.03574 | -85.20275 | 687 ft | 97 kts | 196° |
| 2026-05-08 18:09 | 35.03138 | -85.20433 | 689 ft | 32 kts | 196° |
| 2026-05-08 18:09 | 35.03007 | -85.20478 | 688 ft | 11 kts | 188° |
| 2026-05-08 18:09 | 35.02959 | -85.20459 | 689 ft | 7 kts | 127° |
| 2026-05-08 18:10 | 35.02943 | -85.20399 | 686 ft | 8 kts | 88° |
| 2026-05-08 18:10 | 35.02978 | -85.20350 | 689 ft | 9 kts | 20° |
| 2026-05-08 18:10 | 35.03045 | -85.20327 | 683 ft | 11 kts | 15° |
| 2026-05-08 18:10 | 35.03123 | -85.20299 | 689 ft | 12 kts | 16° |
| 2026-05-08 18:11 | 35.03194 | -85.20260 | 689 ft | 12 kts | 41° |
| 2026-05-08 18:11 | 35.03241 | -85.20178 | 688 ft | 11 kts | 58° |
| 2026-05-08 18:11 | 35.03297 | -85.20116 | 689 ft | 12 kts | 24° |
| 2026-05-08 18:11 | 35.03368 | -85.20088 | 689 ft | 11 kts | 18° |
| 2026-05-08 18:12 | 35.03445 | -85.20058 | 688 ft | 12 kts | 16° |
| 2026-05-08 18:12 | 35.03531 | -85.20027 | 686 ft | 11 kts | 17° |
| 2026-05-08 18:12 | 35.03594 | -85.20004 | 681 ft | 6 kts | 17° |
| 2026-05-08 18:12 | 35.03628 | -85.19991 | 689 ft | 3 kts | 18° |
| 2026-05-08 18:13 | 35.03650 | -85.19983 | 689 ft | 4 kts | 17° |
| 2026-05-08 18:13 | 35.03673 | -85.19969 | 687 ft | 3 kts | 38° |
| 2026-05-08 18:13 | 35.03691 | -85.19942 | 689 ft | 5 kts | 64° |
| 2026-05-08 18:13 | 35.03703 | -85.19910 | 689 ft | 4 kts | 66° |
| 2026-05-08 18:14 | 35.03717 | -85.19873 | 689 ft | 5 kts | 65° |
| 2026-05-08 18:14 | 35.03727 | -85.19846 | 688 ft | 2 kts | 64° |
| 2026-05-08 18:14 | 35.03728 | -85.19844 | 686 ft | 0 kts | 64° |